Time;durP1;ratioP1;P1;durP2;ratioP2;P2;SDS_P1;SDS_P2;PMS_P1;PMS_P2;Temp;Humidity;BMP_temperature;BMP_pressure;BME280_temperature;BME280_humidity;BME280_pressure;Samples;Min_cycle;Max_cycle;Signal;HPM_P1;HPM_P2
2023/02/13 00:00:52;;;;;;;47.22;20.90;;;8.00;99.90;;;;;;5010107;28;20064;-72
2023/02/13 00:03:17;;;;;;;52.42;24.00;;;8.00;99.90;;;;;;5010038;28;20057;-72
2023/02/13 00:05:43;;;;;;;37.60;17.83;;;8.00;99.90;;;;;;5010825;28;20026;-72
2023/02/13 00:08:09;;;;;;;29.90;15.52;;;8.00;99.90;;;;;;5008998;28;20022;-72
2023/02/13 00:10:35;;;;;;;36.42;16.42;;;8.00;99.90;;;;;;5013711;28;20053;-73
2023/02/13 00:13:00;;;;;;;37.20;16.60;;;8.00;99.90;;;;;;5012055;28;20041;-73
2023/02/13 00:15:26;;;;;;;39.00;19.08;;;8.00;99.90;;;;;;5013761;28;20100;-72
2023/02/13 00:17:52;;;;;;;32.72;16.30;;;8.00;99.90;;;;;;5012610;28;20029;-73
2023/02/13 00:20:17;;;;;;;34.42;16.50;;;8.00;99.90;;;;;;5014124;28;20144;-72
2023/02/13 00:22:43;;;;;;;34.22;15.10;;;8.00;99.90;;;;;;5013553;28;20049;-73
2023/02/13 00:25:09;;;;;;;34.28;16.63;;;8.00;99.90;;;;;;5014244;28;20068;-72
2023/02/13 00:27:35;;;;;;;30.88;14.85;;;8.00;99.90;;;;;;5013841;28;20027;-74
2023/02/13 00:30:00;;;;;;;35.65;16.13;;;7.90;99.90;;;;;;5013845;28;20044;-73
2023/02/13 00:32:26;;;;;;;35.50;15.68;;;7.90;99.90;;;;;;5013973;28;20018;-73
2023/02/13 00:34:52;;;;;;;38.40;15.80;;;7.90;99.90;;;;;;5013570;28;20053;-72
2023/02/13 00:37:17;;;;;;;35.10;16.55;;;7.90;99.90;;;;;;5012296;28;20030;-72
2023/02/13 00:39:43;;;;;;;36.50;16.55;;;7.90;99.90;;;;;;5012643;28;20438;-72
2023/02/13 00:42:08;;;;;;;34.55;16.88;;;7.90;99.90;;;;;;5012728;28;20120;-73
2023/02/13 00:44:34;;;;;;;41.72;17.63;;;7.80;99.90;;;;;;5013944;28;20509;-73
2023/02/13 00:47:00;;;;;;;34.90;16.58;;;7.90;99.90;;;;;;5013489;28;20034;-73
2023/02/13 00:49:25;;;;;;;37.78;17.17;;;7.90;99.90;;;;;;5013329;28;20026;-72
2023/02/13 00:51:51;;;;;;;35.85;16.15;;;7.90;99.90;;;;;;5013766;28;20061;-73
2023/02/13 00:54:16;;;;;;;44.42;17.13;;;7.90;99.90;;;;;;5013114;28;20484;-73
2023/02/13 00:56:42;;;;;;;37.70;17.25;;;7.80;99.90;;;;;;5013489;28;20026;-72
2023/02/13 00:59:07;;;;;;;39.17;18.25;;;7.80;99.90;;;;;;5011348;28;20087;-73
2023/02/13 01:01:33;;;;;;;41.10;17.55;;;7.80;99.90;;;;;;5012541;28;20041;-73
2023/02/13 01:03:59;;;;;;;37.40;16.83;;;7.80;99.90;;;;;;5012153;28;20023;-73
2023/02/13 01:06:24;;;;;;;44.22;17.85;;;7.90;99.90;;;;;;5012984;28;20036;-72
2023/02/13 01:08:50;;;;;;;40.25;17.45;;;7.80;99.90;;;;;;5013021;28;20026;-73
2023/02/13 01:11:17;;;;;;;42.70;18.10;;;7.90;99.90;;;;;;5012178;28;20037;-73
2023/02/13 01:13:43;;;;;;;38.92;17.40;;;7.80;99.90;;;;;;5010411;28;20026;-73
2023/02/13 01:16:09;;;;;;;42.10;17.83;;;7.80;99.90;;;;;;5011908;28;20034;-73
2023/02/13 01:18:35;;;;;;;44.45;19.15;;;7.80;99.90;;;;;;5011660;28;20029;-72
2023/02/13 01:21:06;;;;;;;38.90;17.40;;;7.80;99.90;;;;;;5010495;28;20061;-73
2023/02/13 01:23:34;;;;;;;51.95;19.17;;;7.80;99.90;;;;;;5011463;28;20120;-72
2023/02/13 01:26:02;;;;;;;46.60;19.20;;;7.80;99.90;;;;;;5009966;28;20454;-72
2023/02/13 01:28:27;;;;;;;45.10;18.35;;;7.80;99.90;;;;;;5011576;28;20026;-72
2023/02/13 01:30:55;;;;;;;40.35;18.65;;;7.80;99.90;;;;;;5010285;28;20111;-73
2023/02/13 01:33:21;;;;;;;55.10;19.40;;;7.70;99.90;;;;;;5011042;28;20031;-74
2023/02/13 01:35:47;;;;;;;46.70;19.27;;;7.70;99.90;;;;;;5010621;28;20034;-73
2023/02/13 01:38:13;;;;;;;52.10;19.90;;;7.80;99.90;;;;;;5009831;28;20022;-74
2023/02/13 01:40:47;;;;;;;46.13;19.33;;;7.70;99.90;;;;;;5012027;28;20442;-73
2023/02/13 01:43:12;;;;;;;46.92;19.67;;;7.70;99.90;;;;;;5010779;28;20037;-73
2023/02/13 01:45:38;;;;;;;48.90;19.70;;;7.70;99.90;;;;;;5010161;28;20038;-73
2023/02/13 01:48:21;;;;;;;45.47;19.75;;;7.70;99.90;;;;;;5010939;28;20038;-74
2023/02/13 01:51:18;;;;;;;51.28;20.23;;;7.70;99.90;;;;;;5011001;28;20052;-74
2023/02/13 01:53:59;;;;;;;44.40;19.95;;;7.70;99.90;;;;;;5023877;28;20034;-73
2023/02/13 01:56:33;;;;;;;50.13;19.00;;;7.70;99.90;;;;;;5010123;28;20030;-74
2023/02/13 01:59:05;;;;;;;40.72;18.85;;;7.70;99.90;;;;;;5010479;28;20042;-72
2023/02/13 02:01:31;;;;;;;44.05;20.48;;;7.70;99.90;;;;;;5015872;28;20065;-73
2023/02/13 02:04:04;;;;;;;43.88;20.65;;;7.70;99.90;;;;;;5016371;28;20038;-73
2023/02/13 02:06:35;;;;;;;45.83;19.50;;;7.70;99.90;;;;;;5010939;28;20053;-73
2023/02/13 02:09:07;;;;;;;46.47;20.85;;;7.70;99.90;;;;;;5012449;28;20042;-73
2023/02/13 02:11:59;;;;;;;46.17;20.30;;;7.70;99.90;;;;;;5010687;28;20021;-73
2023/02/13 02:14:26;;;;;;;47.45;19.58;;;7.70;99.90;;;;;;5010701;28;20041;-74
2023/02/13 02:16:52;;;;;;;48.53;20.60;;;7.70;99.90;;;;;;5010115;28;20065;-73
2023/02/13 02:19:57;;;;;;;44.38;19.77;;;7.70;99.90;;;;;;5009009;28;20455;-72
2023/02/13 02:22:41;;;;;;;46.63;19.92;;;7.70;99.90;;;;;;5013044;28;20040;-73
2023/02/13 02:25:18;;;;;;;46.67;19.03;;;7.70;99.90;;;;;;5011130;28;20034;-73
2023/02/13 02:28:10;;;;;;;116.20;47.85;;;7.70;99.90;;;;;;5010433;28;20274;-73
2023/02/13 02:30:57;;;;;;;58.10;25.73;;;7.70;99.90;;;;;;5009713;28;20360;-72
2023/02/13 02:33:52;;;;;;;85.53;38.83;;;7.70;99.90;;;;;;5008912;28;20108;-72
2023/02/13 02:36:40;;;;;;;;;;;7.70;99.90;;;;;;5007978;28;20506;-72
2023/02/13 02:39:31;;;;;;;62.83;26.13;;;7.70;99.90;;;;;;5009353;28;19913;-74
2023/02/13 02:42:21;;;;;;;94.80;39.80;;;7.70;99.90;;;;;;5010169;28;20026;-74
2023/02/13 02:45:05;;;;;;;83.88;39.72;;;7.60;99.90;;;;;;5008776;28;20026;-73
2023/02/13 02:50:36;;;;;;;48.30;21.55;;;7.60;99.90;;;;;;5010050;28;20029;-73
2023/02/13 02:53:15;;;;;;;49.33;20.15;;;7.60;99.90;;;;;;5010217;28;20095;-73
2023/02/13 02:56:00;;;;;;;47.50;20.48;;;7.60;99.90;;;;;;5010181;28;20052;-73
2023/02/13 03:07:43;;;;;;;52.15;20.92;;;7.60;99.90;;;;;;5017805;28;20507;-73
2023/02/13 03:13:28;;;;;;;54.58;21.77;;;7.60;99.90;;;;;;5009667;28;20403;-73
2023/02/13 03:24:32;;;;;;;45.28;17.38;;;7.50;99.90;;;;;;5009485;28;20138;-73
2023/02/13 03:30:05;;;;;;;50.75;20.65;;;7.50;99.90;;;;;;5009399;28;20373;-73
2023/02/13 03:30:42;;;;;;;50.55;21.83;;;7.50;99.90;;;;;;5009697;28;20045;-73
2023/02/13 03:33:22;;;;;;;52.10;22.45;;;7.50;99.90;;;;;;5015379;28;20045;-73
2023/02/13 03:39:10;;;;;;;56.17;23.13;;;7.50;99.90;;;;;;5009949;28;20121;-73
2023/02/13 03:42:11;;;;;;;51.50;22.70;;;7.50;99.90;;;;;;5010120;28;20454;-73
2023/02/13 03:44:43;;;;;;;57.72;23.50;;;7.40;99.90;;;;;;5011664;28;20026;-73
2023/02/13 03:47:10;;;;;;;55.15;22.40;;;7.40;99.90;;;;;;5014375;28;20451;-74
2023/02/13 03:50:06;;;;;;;56.25;23.30;;;7.40;99.90;;;;;;5014106;28;20034;-74
2023/02/13 03:52:51;;;;;;;63.40;25.08;;;7.40;99.90;;;;;;5013323;28;20026;-72
2023/02/13 04:01:06;;;;;;;57.60;23.40;;;7.50;99.90;;;;;;5013385;28;20048;-73
2023/02/13 04:04:02;;;;;;;56.08;23.10;;;7.40;99.90;;;;;;5013163;28;20482;-73
2023/02/13 04:06:36;;;;;;;62.92;24.60;;;7.40;99.90;;;;;;5012936;28;20085;-73
2023/02/13 04:09:02;;;;;;;58.67;23.83;;;7.40;99.90;;;;;;5015366;28;20061;-74
2023/02/13 04:11:36;;;;;;;61.40;24.25;;;7.40;99.90;;;;;;5014156;28;20030;-74
2023/02/13 04:14:20;;;;;;;60.05;24.73;;;7.40;99.90;;;;;;5014321;28;20484;-74
2023/02/13 04:16:54;;;;;;;59.33;23.48;;;7.40;99.90;;;;;;5013270;28;20029;-74
2023/02/13 04:19:22;;;;;;;59.97;25.13;;;7.40;99.90;;;;;;5020631;28;20098;-73
2023/02/13 04:21:54;;;;;;;62.80;24.05;;;7.40;99.90;;;;;;5013737;28;20074;-73
2023/02/13 04:24:20;;;;;;;60.67;24.40;;;7.40;99.90;;;;;;5013728;28;20014;-73
2023/02/13 04:26:45;;;;;;;63.55;24.52;;;7.40;99.90;;;;;;5014013;28;20041;-74
2023/02/13 04:29:11;;;;;;;61.88;23.58;;;7.40;99.90;;;;;;5014131;28;20036;-74
2023/02/13 04:31:37;;;;;;;63.75;23.58;;;7.40;99.90;;;;;;5013644;28;20034;-74
2023/02/13 04:34:02;;;;;;;57.10;22.42;;;7.40;99.90;;;;;;5012502;28;20033;-73
2023/02/13 04:36:28;;;;;;;54.63;22.40;;;7.40;99.90;;;;;;5013753;28;20491;-74
2023/02/13 04:38:54;;;;;;;58.72;23.85;;;7.40;99.90;;;;;;5013263;28;20054;-73
2023/02/13 04:41:19;;;;;;;59.83;24.08;;;7.40;99.90;;;;;;5019458;28;20061;-75
2023/02/13 04:43:45;;;;;;;58.53;22.98;;;7.40;99.90;;;;;;5012158;28;20045;-73
2023/02/13 04:46:10;;;;;;;58.38;22.20;;;7.40;99.90;;;;;;5012953;28;20028;-74
2023/02/13 04:48:36;;;;;;;56.30;23.95;;;7.40;99.90;;;;;;5013474;28;20029;-74
2023/02/13 04:51:02;;;;;;;63.22;25.98;;;7.40;99.90;;;;;;5013732;28;20771;-73
2023/02/13 04:53:27;;;;;;;62.75;25.70;;;7.40;99.90;;;;;;5011872;28;20026;-72
2023/02/13 04:55:53;;;;;;;59.88;25.35;;;7.40;99.90;;;;;;5012752;28;20048;-74
2023/02/13 04:58:18;;;;;;;66.03;25.70;;;7.50;99.90;;;;;;5011868;28;20068;-73
2023/02/13 05:00:44;;;;;;;63.50;25.95;;;7.50;99.90;;;;;;5013089;28;20050;-74
2023/02/13 05:03:12;;;;;;;59.90;24.70;;;7.40;99.90;;;;;;5012601;28;20490;-73
2023/02/13 05:05:38;;;;;;;63.63;24.98;;;7.40;99.90;;;;;;5012983;28;20018;-75
2023/02/13 05:08:05;;;;;;;60.35;24.95;;;7.40;99.90;;;;;;5013223;28;20014;-74
2023/02/13 05:10:31;;;;;;;59.60;24.40;;;7.40;99.90;;;;;;5012405;28;20030;-73
2023/02/13 05:12:57;;;;;;;54.20;22.75;;;7.40;99.90;;;;;;5013122;28;20026;-74
2023/02/13 05:15:23;;;;;;;63.20;25.42;;;7.40;99.90;;;;;;5012984;28;20049;-73
2023/02/13 05:17:49;;;;;;;59.75;24.23;;;7.40;99.90;;;;;;5012914;28;20034;-73
2023/02/13 05:20:15;;;;;;;54.00;23.58;;;7.30;99.90;;;;;;5012733;28;20022;-74
2023/02/13 05:25:29;;;;;;;60.10;25.00;;;7.40;99.90;;;;;;5012862;28;20038;-74
2023/02/13 05:27:55;;;;;;;53.75;22.55;;;7.30;99.90;;;;;;5012533;28;20026;-72
2023/02/13 05:30:20;;;;;;;58.75;23.85;;;7.30;99.90;;;;;;5012028;28;20396;-74
2023/02/13 05:32:46;;;;;;;56.67;23.58;;;7.30;99.90;;;;;;5012663;28;20364;-73
2023/02/13 05:35:12;;;;;;;55.13;24.05;;;7.30;99.90;;;;;;5011201;28;20093;-75
2023/02/13 05:37:37;;;;;;;56.15;24.42;;;7.30;99.90;;;;;;5012770;28;20499;-73
2023/02/13 05:40:03;;;;;;;53.38;23.67;;;7.40;99.90;;;;;;5011954;28;20432;-74
2023/02/13 05:42:29;;;;;;;53.30;23.67;;;7.40;99.90;;;;;;5012647;28;20101;-74
2023/02/13 05:44:54;;;;;;;53.33;23.38;;;7.40;99.90;;;;;;5012673;28;20404;-73
2023/02/13 05:47:20;;;;;;;59.10;23.25;;;7.40;99.90;;;;;;5012109;28;20073;-73
2023/02/13 05:49:45;;;;;;;55.10;24.05;;;7.40;99.90;;;;;;5012599;28;20070;-74
2023/02/13 05:52:11;;;;;;;61.75;24.55;;;7.40;99.90;;;;;;5011111;28;20029;-73
2023/02/13 05:54:38;;;;;;;57.67;22.65;;;7.40;99.90;;;;;;5011015;28;20033;-74
2023/02/13 05:57:04;;;;;;;57.13;23.80;;;7.40;99.90;;;;;;5012368;28;20057;-73
2023/02/13 05:59:29;;;;;;;52.05;23.25;;;7.40;99.90;;;;;;5012201;28;20046;-73
2023/02/13 06:01:55;;;;;;;61.17;24.45;;;7.40;99.90;;;;;;5010759;28;20113;-74
2023/02/13 06:04:20;;;;;;;58.38;25.73;;;7.40;99.90;;;;;;5012139;28;20038;-74
2023/02/13 06:06:46;;;;;;;55.58;23.95;;;7.40;99.90;;;;;;5010694;28;20030;-73
2023/02/13 06:09:12;;;;;;;57.88;24.83;;;7.40;99.90;;;;;;5010829;28;20018;-73
2023/02/13 06:11:37;;;;;;;63.97;24.95;;;7.40;99.90;;;;;;5012320;28;20094;-74
2023/02/13 06:14:03;;;;;;;61.63;25.42;;;7.40;99.90;;;;;;5011882;28;20133;-74
2023/02/13 06:16:30;;;;;;;66.05;26.02;;;7.30;99.90;;;;;;5011872;28;20049;-72
2023/02/13 06:18:56;;;;;;;60.53;26.33;;;7.40;99.90;;;;;;5011046;28;20077;-72
2023/02/13 06:21:21;;;;;;;56.40;24.27;;;7.40;99.90;;;;;;5010512;28;20030;-72
2023/02/13 06:23:47;;;;;;;63.58;25.17;;;7.40;99.90;;;;;;5007136;28;20049;-72
2023/02/13 06:26:13;;;;;;;58.30;25.38;;;7.40;99.90;;;;;;5012201;28;20046;-72
2023/02/13 06:28:38;;;;;;;61.03;25.65;;;7.40;99.90;;;;;;5010714;28;20030;-72
2023/02/13 06:31:04;;;;;;;59.22;23.58;;;7.40;99.90;;;;;;5007078;28;20044;-72
2023/02/13 06:33:30;;;;;;;64.57;25.88;;;7.40;99.90;;;;;;5005730;28;20097;-72
2023/02/13 06:35:56;;;;;;;57.17;24.05;;;7.40;99.90;;;;;;5009501;28;20038;-72
2023/02/13 06:38:21;;;;;;;59.95;24.65;;;7.30;99.90;;;;;;5008524;28;20030;-72
2023/02/13 06:40:48;;;;;;;61.67;24.52;;;7.30;99.90;;;;;;5009854;28;20030;-71
2023/02/13 06:43:15;;;;;;;63.05;25.27;;;7.40;99.90;;;;;;5009605;28;20097;-71
2023/02/13 06:45:41;;;;;;;63.22;26.67;;;7.40;99.90;;;;;;5011150;28;20058;-72
2023/02/13 06:48:07;;;;;;;58.45;24.48;;;7.30;99.90;;;;;;5010413;28;20077;-73
2023/02/13 06:50:33;;;;;;;64.75;25.52;;;7.30;99.90;;;;;;5009030;28;20109;-73
2023/02/13 06:52:59;;;;;;;62.72;26.20;;;7.30;99.90;;;;;;5010133;28;20053;-72
2023/02/13 06:55:25;;;;;;;56.00;22.95;;;7.30;99.90;;;;;;5008511;28;20101;-73
2023/02/13 06:57:51;;;;;;;63.88;24.38;;;7.30;99.90;;;;;;5009812;28;20646;-72
2023/02/13 07:00:18;;;;;;;57.75;25.00;;;7.30;99.90;;;;;;5010854;28;20030;-73
2023/02/13 07:02:45;;;;;;;57.95;26.52;;;7.30;99.90;;;;;;5009963;28;20022;-71
2023/02/13 07:05:11;;;;;;;62.35;27.08;;;7.30;99.90;;;;;;5008819;28;20030;-73
2023/02/13 07:07:39;;;;;;;54.70;24.67;;;7.30;99.90;;;;;;5009752;28;20026;-72
2023/02/13 07:10:06;;;;;;;62.22;25.60;;;7.30;99.90;;;;;;5009585;28;20057;-72
2023/02/13 07:12:33;;;;;;;55.47;25.55;;;7.40;99.90;;;;;;5008771;28;20026;-74
2023/02/13 07:14:58;;;;;;;61.88;25.73;;;7.40;99.90;;;;;;5009413;28;20042;-73
2023/02/13 07:17:25;;;;;;;56.65;24.75;;;7.40;99.90;;;;;;5010032;28;20754;-71
2023/02/13 07:19:51;;;;;;;65.82;27.42;;;7.40;99.90;;;;;;5009220;28;20487;-71
2023/02/13 07:22:17;;;;;;;56.17;24.27;;;7.40;99.90;;;;;;5011058;28;20022;-75
2023/02/13 07:24:43;;;;;;;64.50;27.08;;;7.40;99.90;;;;;;5009843;28;20062;-74
2023/02/13 07:27:08;;;;;;;63.17;27.25;;;7.40;99.90;;;;;;5007809;28;20018;-73
2023/02/13 07:29:34;;;;;;;62.70;26.95;;;7.30;99.90;;;;;;5010163;28;20029;-72
2023/02/13 07:31:59;;;;;;;64.82;27.00;;;7.40;99.90;;;;;;5006944;28;20018;-73
2023/02/13 07:34:25;;;;;;;61.95;26.98;;;7.40;99.90;;;;;;5008917;28;20042;-73
2023/02/13 07:36:51;;;;;;;64.95;27.25;;;7.40;99.90;;;;;;5011169;28;20026;-73
2023/02/13 07:39:16;;;;;;;73.80;29.58;;;7.40;99.90;;;;;;5009955;28;20398;-74
2023/02/13 07:41:42;;;;;;;67.90;28.88;;;7.50;99.90;;;;;;5006461;28;20109;-71
2023/02/13 07:44:07;;;;;;;73.38;29.33;;;7.40;99.90;;;;;;5008069;28;20077;-73
2023/02/13 07:46:33;;;;;;;73.38;28.73;;;7.40;99.90;;;;;;5009031;28;20046;-73
2023/02/13 07:48:59;;;;;;;67.53;28.23;;;7.40;99.90;;;;;;5010327;28;20026;-72
2023/02/13 07:51:24;;;;;;;70.70;27.95;;;7.50;99.90;;;;;;5008997;28;20483;-72
2023/02/13 07:53:51;;;;;;;73.63;29.58;;;7.50;99.90;;;;;;5010386;28;20115;-73
2023/02/13 07:56:17;;;;;;;76.45;29.27;;;7.50;99.90;;;;;;5010490;28;20039;-72
2023/02/13 07:58:43;;;;;;;77.32;30.58;;;7.50;99.90;;;;;;5009295;28;20088;-72
2023/02/13 08:01:11;;;;;;;70.50;29.20;;;7.50;99.90;;;;;;5009466;28;20044;-72
2023/02/13 08:03:37;;;;;;;70.45;29.92;;;7.50;99.90;;;;;;5010393;28;20072;-73
2023/02/13 08:06:04;;;;;;;72.72;30.30;;;7.60;99.90;;;;;;5009893;28;20027;-72
2023/02/13 08:08:30;;;;;;;74.65;31.92;;;7.60;99.90;;;;;;5009519;28;20030;-72
2023/02/13 08:13:41;;;;;;;;;;;7.60;99.90;;;;;;5011217;28;20597;-72
2023/02/13 08:16:07;;;;;;;75.55;30.77;;;7.60;99.90;;;;;;5009555;28;20048;-72
2023/02/13 08:18:32;;;;;;;79.80;31.35;;;7.70;99.90;;;;;;5009487;28;20073;-73
2023/02/13 08:21:00;;;;;;;71.68;29.50;;;7.70;99.90;;;;;;5008264;28;20498;-72
2023/02/13 08:23:25;;;;;;;70.70;29.10;;;7.70;99.90;;;;;;5014267;28;20033;-72
2023/02/13 08:25:51;;;;;;;75.63;29.45;;;7.70;99.90;;;;;;5010610;28;20030;-72
2023/02/13 08:28:16;;;;;;;75.85;30.10;;;7.70;99.90;;;;;;5009468;28;20030;-72
2023/02/13 08:30:42;;;;;;;70.00;29.05;;;7.70;99.90;;;;;;5009226;28;20113;-73
2023/02/13 08:33:07;;;;;;;68.32;29.70;;;7.70;99.90;;;;;;5013814;28;20032;-71
2023/02/13 08:35:33;;;;;;;83.38;31.63;;;7.70;99.90;;;;;;5014063;28;20038;-73
2023/02/13 08:38:03;;;;;;;72.05;30.00;;;7.70;99.90;;;;;;5012547;28;20061;-72
2023/02/13 08:40:30;;;;;;;69.75;30.30;;;7.70;99.90;;;;;;5013932;28;20022;-71
2023/02/13 08:43:00;;;;;;;72.28;30.20;;;7.70;99.90;;;;;;5010993;28;20040;-73
2023/02/13 08:45:26;;;;;;;73.18;28.95;;;7.70;99.90;;;;;;5011271;28;20022;-72
2023/02/13 08:47:55;;;;;;;70.85;28.70;;;7.70;99.90;;;;;;5008652;28;20048;-71
2023/02/13 08:50:20;;;;;;;68.22;28.45;;;7.70;99.90;;;;;;5013305;28;20031;-73
2023/02/13 08:52:46;;;;;;;67.55;29.42;;;7.70;99.90;;;;;;5012073;28;20052;-72
2023/02/13 08:55:12;;;;;;;62.50;28.63;;;7.60;99.90;;;;;;5012363;28;20042;-73
2023/02/13 08:57:37;;;;;;;66.20;28.45;;;7.60;99.90;;;;;;5010713;28;20069;-71
2023/02/13 09:00:03;;;;;;;73.00;30.58;;;7.60;99.90;;;;;;5011518;28;20046;-71
2023/02/13 09:02:29;;;;;;;74.45;32.50;;;7.60;99.90;;;;;;5010140;28;20026;-72
2023/02/13 09:04:54;;;;;;;72.85;32.90;;;7.60;99.90;;;;;;5010882;28;20034;-72
2023/02/13 09:07:20;;;;;;;67.45;29.77;;;7.70;99.90;;;;;;5012250;28;20022;-72
2023/02/13 09:09:45;;;;;;;58.92;26.45;;;7.70;99.90;;;;;;5012216;28;20029;-71
2023/02/13 09:12:12;;;;;;;64.35;28.63;;;7.70;99.90;;;;;;5011932;28;20072;-70
2023/02/13 09:14:38;;;;;;;59.85;26.48;;;7.70;99.90;;;;;;5011229;28;20100;-73
2023/02/13 09:17:04;;;;;;;57.58;25.83;;;7.70;99.90;;;;;;5012688;28;20029;-73
2023/02/13 09:19:29;;;;;;;58.60;25.92;;;7.70;99.90;;;;;;5009627;28;20141;-73
2023/02/13 09:21:55;;;;;;;57.00;26.10;;;7.70;99.90;;;;;;5011466;28;20084;-72
2023/02/13 09:24:21;;;;;;;57.28;25.52;;;7.70;99.90;;;;;;5009644;28;20022;-72
2023/02/13 09:26:46;;;;;;;58.95;25.23;;;7.70;99.90;;;;;;5011840;28;20134;-72
2023/02/13 09:29:12;;;;;;;50.17;24.13;;;7.70;99.90;;;;;;5011941;28;20054;-72
2023/02/13 09:31:37;;;;;;;54.05;25.77;;;7.70;99.90;;;;;;5011419;28;20104;-71
2023/02/13 09:34:03;;;;;;;54.35;23.98;;;7.70;99.90;;;;;;5010568;28;20021;-72
2023/02/13 09:36:28;;;;;;;59.78;25.52;;;7.70;99.90;;;;;;5010040;28;21085;-71
2023/02/13 09:38:56;;;;;;;62.92;27.25;;;7.70;99.90;;;;;;5012447;28;20034;-72
2023/02/13 09:41:32;;;;;;;57.38;24.95;;;7.80;99.90;;;;;;5010065;28;20046;-71
2023/02/13 09:44:32;;;;;;;60.70;25.70;;;7.80;99.90;;;;;;5011225;28;20034;-71
2023/02/13 09:47:15;;;;;;;53.63;24.23;;;7.80;99.90;;;;;;5011280;28;20038;-70
2023/02/13 09:49:49;;;;;;;54.50;24.27;;;7.80;99.90;;;;;;5012183;28;20060;-71
2023/02/13 09:52:15;;;;;;;53.25;25.33;;;7.80;99.90;;;;;;5015860;28;20030;-73
2023/02/13 09:54:41;;;;;;;61.25;26.73;;;7.80;99.90;;;;;;5007612;28;20042;-72
2023/02/13 09:57:24;;;;;;;56.58;24.80;;;7.90;99.90;;;;;;5025951;28;20026;-72
2023/02/13 10:00:12;;;;;;;52.72;24.23;;;7.90;99.90;;;;;;5011798;28;20029;-70
2023/02/13 10:02:55;;;;;;;54.35;24.15;;;7.90;99.90;;;;;;5013080;28;20042;-72
2023/02/13 10:05:26;;;;;;;56.53;25.20;;;7.90;99.90;;;;;;5009934;28;20030;-72
2023/02/13 10:08:00;;;;;;;55.05;23.40;;;7.90;99.90;;;;;;4998933;28;20062;-72
2023/02/13 10:10:51;;;;;;;50.55;22.55;;;7.90;99.90;;;;;;5009754;28;20049;-72
2023/02/13 10:13:44;;;;;;;59.15;26.55;;;7.90;99.90;;;;;;5009968;28;20129;-71
2023/02/13 10:16:24;;;;;;;55.20;24.75;;;7.90;99.90;;;;;;5011928;28;20049;-72
2023/02/13 10:18:56;;;;;;;51.53;24.10;;;8.00;99.90;;;;;;5007381;28;20031;-72
2023/02/13 10:21:27;;;;;;;55.17;24.10;;;8.00;99.90;;;;;;5009967;28;20810;-73
2023/02/13 10:24:10;;;;;;;52.13;23.40;;;8.00;99.90;;;;;;5007865;28;20044;-71
2023/02/13 10:26:42;;;;;;;49.67;23.17;;;7.90;99.90;;;;;;5015155;28;20116;-71
2023/02/13 10:32:03;;;;;;;47.65;23.58;;;7.90;99.90;;;;;;5012128;28;20048;-71
2023/02/13 10:34:36;;;;;;;53.95;23.67;;;7.90;99.90;;;;;;5011858;28;20097;-72
2023/02/13 10:37:07;;;;;;;54.33;22.50;;;7.90;99.90;;;;;;5008326;28;20034;-71
2023/02/13 10:39:32;;;;;;;53.58;22.45;;;7.90;99.90;;;;;;5007757;28;20028;-72
2023/02/13 10:42:10;;;;;;;50.22;23.63;;;8.00;99.90;;;;;;5008974;28;20038;-70
2023/02/13 10:45:15;;;;;;;46.42;22.27;;;7.90;99.90;;;;;;5011828;28;20025;-71
2023/02/13 10:48:17;;;;;;;47.30;22.15;;;7.90;99.90;;;;;;5009758;28;20044;-71
2023/02/13 10:50:59;;;;;;;52.30;23.83;;;8.00;99.90;;;;;;5009530;28;20468;-72
2023/02/13 10:54:06;;;;;;;54.42;23.65;;;8.00;99.90;;;;;;5006983;28;20057;-72
2023/02/13 10:56:42;;;;;;;53.20;22.88;;;8.00;99.90;;;;;;5005656;28;20065;-72
2023/02/13 10:59:27;;;;;;;49.20;22.20;;;8.00;99.90;;;;;;5015136;28;20149;-71
2023/02/13 11:01:55;;;;;;;;;;;8.00;99.90;;;;;;5008995;28;20030;-72
2023/02/13 11:04:21;;;;;;;49.10;21.65;;;8.10;99.90;;;;;;5010129;28;19905;-72
2023/02/13 11:07:02;;;;;;;48.03;21.23;;;8.10;99.90;;;;;;5010113;28;20026;-70
2023/02/13 11:09:30;;;;;;;44.92;21.40;;;8.10;99.90;;;;;;5011177;28;20026;-71
2023/02/13 11:11:56;;;;;;;44.03;20.25;;;8.10;99.90;;;;;;5011225;28;20022;-72
2023/02/13 11:14:24;;;;;;;50.05;22.40;;;8.20;99.90;;;;;;5008387;28;20034;-71
2023/02/13 11:16:56;;;;;;;53.67;20.85;;;8.20;99.90;;;;;;5011027;28;20074;-71
2023/02/13 11:19:36;;;;;;;45.15;21.25;;;8.20;99.90;;;;;;5017526;28;20037;-71
2023/02/13 11:22:12;;;;;;;52.53;22.88;;;8.20;99.90;;;;;;5011516;28;20533;-71
2023/02/13 11:24:41;;;;;;;48.83;22.92;;;8.10;99.90;;;;;;5011492;28;20026;-72
2023/02/13 11:27:12;;;;;;;47.70;20.67;;;8.10;99.90;;;;;;5011484;28;20026;-72
2023/02/13 11:30:11;;;;;;;53.83;23.20;;;8.10;99.90;;;;;;5010822;28;20021;-72
2023/02/13 11:32:36;;;;;;;47.38;21.48;;;8.10;99.90;;;;;;5009300;28;20030;-71
2023/02/13 11:35:27;;;;;;;49.53;21.70;;;8.20;99.90;;;;;;5010147;28;20042;-72
2023/02/13 11:38:21;;;;;;;46.78;20.92;;;8.30;99.90;;;;;;5010074;28;20045;-71
2023/02/13 11:41:02;;;;;;;51.97;21.23;;;8.30;99.90;;;;;;5010201;28;20040;-71
2023/02/13 11:43:34;;;;;;;42.42;20.23;;;8.30;99.90;;;;;;5011240;28;20029;-71
2023/02/13 11:46:01;;;;;;;45.85;20.40;;;8.30;99.90;;;;;;5011056;28;20026;-72
2023/02/13 11:48:27;;;;;;;49.38;20.95;;;8.40;99.90;;;;;;5010793;28;20034;-73
2023/02/13 11:50:54;;;;;;;42.90;20.25;;;8.40;99.90;;;;;;5009473;28;20097;-71
2023/02/13 11:53:36;;;;;;;44.28;20.30;;;8.50;99.90;;;;;;5010652;28;20128;-73
2023/02/13 11:56:12;;;;;;;46.67;20.38;;;8.40;99.90;;;;;;5010829;28;20102;-74
2023/02/13 11:58:38;;;;;;;44.58;20.92;;;8.50;99.90;;;;;;5010162;28;20046;-74
2023/02/13 12:01:19;;;;;;;48.97;20.20;;;8.50;99.90;;;;;;5009460;28;20031;-72
2023/02/13 12:04:05;;;;;;;43.08;19.75;;;8.50;99.90;;;;;;5008434;28;20042;-73
2023/02/13 12:06:38;;;;;;;41.35;19.38;;;8.50;99.90;;;;;;5019569;28;20022;-73
2023/02/13 12:09:11;;;;;;;43.30;19.15;;;8.50;99.90;;;;;;5014778;28;20026;-72
2023/02/13 12:11:47;;;;;;;44.22;18.90;;;8.60;99.90;;;;;;5012273;28;20049;-71
2023/02/13 12:14:21;;;;;;;45.13;20.75;;;8.60;99.90;;;;;;5012103;28;20482;-72
2023/02/13 12:16:49;;;;;;;43.78;20.05;;;8.60;99.90;;;;;;5014482;28;20036;-72
2023/02/13 12:19:48;;;;;;;41.20;19.48;;;8.50;99.90;;;;;;5014163;28;20035;-70
2023/02/13 12:22:20;;;;;;;42.67;20.42;;;8.50;99.90;;;;;;5011297;28;20072;-71
2023/02/13 12:24:55;;;;;;;46.58;21.08;;;8.60;99.90;;;;;;5014613;28;20041;-71
2023/02/13 12:27:33;;;;;;;49.33;22.17;;;8.60;99.90;;;;;;5020241;28;20078;-71
2023/02/13 12:30:11;;;;;;;46.30;21.17;;;8.60;99.90;;;;;;5014361;28;20879;-71
2023/02/13 12:33:00;;;;;;;39.75;19.48;;;8.70;99.90;;;;;;5014531;28;20030;-72
2023/02/13 12:35:42;;;;;;;40.92;18.90;;;8.70;99.90;;;;;;5014426;28;20139;-72
2023/02/13 12:38:14;;;;;;;42.42;20.52;;;8.70;99.90;;;;;;5013334;28;20026;-73
2023/02/13 12:40:53;;;;;;;48.75;20.73;;;8.70;99.90;;;;;;5020646;28;20034;-72
2023/02/13 12:43:46;;;;;;;43.92;20.75;;;8.70;99.90;;;;;;5014402;28;20021;-71
2023/02/13 12:46:26;;;;;;;42.03;20.05;;;8.70;99.90;;;;;;5020978;28;20038;-72
2023/02/13 12:49:17;;;;;;;46.15;20.42;;;8.80;99.90;;;;;;5010964;28;20041;-71
2023/02/13 12:52:01;;;;;;;46.70;21.05;;;8.80;99.90;;;;;;5020058;28;20030;-73
2023/02/13 12:54:30;;;;;;;;;;;8.80;99.90;;;;;;5014740;28;20156;-73
2023/02/13 12:57:09;;;;;;;39.72;19.95;;;8.80;99.90;;;;;;5013984;28;20388;-72
2023/02/13 12:59:37;;;;;;;43.00;19.63;;;8.80;99.90;;;;;;5014026;28;20033;-73
2023/02/13 13:02:18;;;;;;;48.80;20.35;;;8.80;99.90;;;;;;5012971;28;20030;-72
2023/02/13 13:04:49;;;;;;;42.50;20.42;;;8.90;99.90;;;;;;5020152;28;20010;-72
2023/02/13 13:07:33;;;;;;;49.03;21.65;;;8.90;99.90;;;;;;5012325;28;20084;-73
2023/02/13 13:10:09;;;;;;;42.15;19.90;;;8.80;99.90;;;;;;5013890;28;20022;-73
2023/02/13 13:12:38;;;;;;;42.30;21.05;;;8.80;99.90;;;;;;5013393;28;20057;-72
2023/02/13 13:15:30;;;;;;;44.35;20.23;;;8.80;99.90;;;;;;5011875;28;20056;-73
2023/02/13 13:18:16;;;;;;;43.28;20.73;;;8.80;99.90;;;;;;5013319;28;20396;-72
2023/02/13 13:20:53;;;;;;;41.72;19.77;;;8.80;99.90;;;;;;5011713;28;20022;-72
2023/02/13 13:23:32;;;;;;;41.15;18.80;;;8.80;99.90;;;;;;5012334;28;20025;-73
2023/02/13 13:26:17;;;;;;;40.08;19.20;;;8.80;99.90;;;;;;5013762;28;20118;-71
2023/02/13 13:28:47;;;;;;;43.17;18.80;;;8.80;99.90;;;;;;5013459;28;20034;-73
2023/02/13 13:31:14;;;;;;;43.47;20.77;;;8.90;99.90;;;;;;5012556;28;20022;-74
2023/02/13 13:33:45;;;;;;;43.15;19.48;;;8.90;99.90;;;;;;5012967;28;20030;-73
2023/02/13 13:36:35;;;;;;;42.13;19.27;;;8.90;99.90;;;;;;5013530;28;20038;-72
2023/02/13 13:39:21;;;;;;;46.95;20.88;;;8.90;99.90;;;;;;5012793;28;20032;-71
2023/02/13 13:42:08;;;;;;;43.85;19.65;;;8.90;99.90;;;;;;5019501;28;20435;-73